Decoded Metar for KLUL (LAUREL in MS, USA) (IATA:LUL) | Meteo·Mobile Aviation Weather
aviador You're here:

KLUL Decoded Metar

LAUREL in MS, USA
Report Time2018-08-19 13:55:00
UTC Time2018-08-19 14:05:49
Flight Rules lifr LIFR
Wind240° at 03 kt
W.Decomp.*RWY 31: 1.0 kt HW 2.8 kt LCW
W.Rank240° ranks 27
Current wind is below 240° avg. (5.5)
Visibility9999 m
Phenomena:N/A
Clouds:Overcast 003 Hf
Ceiling300 ft
Temp25°C (ISA +11)
Dew Point25°C (100% RH)
QNH1016 hPa
Density Alt1,841 ft
Elevation299 ft
Report Wrong Elevation
Raw Report
KLUL 191355Z AUTO 24003KT 7SM OVC003 25/25 A3001 RMK AO2
T02450245=

Extra information for KLUL:More info

Metar Taf Metar & Taf Last 4 Metars F.Rules Stats Wind Profile Meteogram Temp Stats Airport Information Weather charts Add Link Nearby VenuesMetar ALERT Operation Metar Decoded Social comments

AIRNAV info for KLUL